createdAt,value
2023-04-09T00:00:19.355Z,46.00
2023-04-09T00:03:07.717Z,44.10
2023-04-09T00:05:41.119Z,48.80
2023-04-09T00:08:12.949Z,46.60
2023-04-09T00:10:41.333Z,44.80
2023-04-09T00:13:09.927Z,48.00
2023-04-09T00:15:39.131Z,46.20
2023-04-09T00:18:08.285Z,47.80
2023-04-09T00:20:37.029Z,48.10
2023-04-09T00:23:05.612Z,47.90
2023-04-09T00:25:34.607Z,46.70
2023-04-09T00:28:03.377Z,46.30
2023-04-09T00:30:31.994Z,47.10
2023-04-09T00:33:00.777Z,48.10
2023-04-09T00:35:29.377Z,46.90
2023-04-09T00:37:57.661Z,47.60
2023-04-09T00:40:36.687Z,48.10
2023-04-09T00:43:05.892Z,46.00
2023-04-09T00:45:38.395Z,51.60
2023-04-09T00:48:10.538Z,48.60
2023-04-09T00:50:39.636Z,49.50
2023-04-09T00:53:08.025Z,47.70
2023-04-09T00:55:37.040Z,46.50
2023-04-09T00:58:05.405Z,45.20
2023-04-09T01:00:33.892Z,45.10
2023-04-09T01:03:03.449Z,45.60
2023-04-09T01:05:47.135Z,46.20
2023-04-09T01:09:03.208Z,45.20
2023-04-09T01:11:49.910Z,45.30
2023-04-09T01:14:45.623Z,44.20
2023-04-09T01:17:26.825Z,45.80
2023-04-09T01:20:05.337Z,45.00
2023-04-09T01:22:42.693Z,43.60
2023-04-09T01:25:54.993Z,44.80
2023-04-09T01:28:32.577Z,46.30
2023-04-09T01:31:27.986Z,42.20
2023-04-09T01:34:01.474Z,45.70
2023-04-09T01:36:32.434Z,44.50
2023-04-09T01:39:02.502Z,43.20
2023-04-09T01:41:33.390Z,41.60
2023-04-09T01:44:04.224Z,43.60
2023-04-09T01:46:35.097Z,42.70
2023-04-09T01:49:05.158Z,41.90
2023-04-09T01:51:34.138Z,44.40
2023-04-09T01:54:02.581Z,43.20
2023-04-09T01:56:44.978Z,46.80
2023-04-09T01:59:14.265Z,47.80
2023-04-09T02:01:48.414Z,47.60
2023-04-09T02:04:29.881Z,49.30
2023-04-09T02:07:01.642Z,49.40
2023-04-09T02:09:32.089Z,51.60
2023-04-09T02:12:04.039Z,54.00
2023-04-09T02:14:37.890Z,51.10
2023-04-09T02:17:06.843Z,52.50
2023-04-09T02:19:45.279Z,50.10
2023-04-09T02:22:17.436Z,51.30
2023-04-09T02:24:46.939Z,54.20
2023-04-09T02:27:15.226Z,52.00
2023-04-09T02:29:43.817Z,49.90
2023-04-09T02:32:13.657Z,49.80
2023-04-09T02:34:42.633Z,51.50
2023-04-09T02:37:11.025Z,50.90
2023-04-09T02:39:39.616Z,53.70
2023-04-09T02:42:08.193Z,53.00
2023-04-09T02:44:36.691Z,54.20
2023-04-09T02:47:06.088Z,51.10
2023-04-09T02:49:35.090Z,52.40
2023-04-09T02:52:03.475Z,54.00
2023-04-09T02:54:34.731Z,50.20
2023-04-09T02:57:03.413Z,50.30
2023-04-09T02:59:33.131Z,50.50
2023-04-09T03:02:02.438Z,47.00
2023-04-09T03:04:30.936Z,48.20
2023-04-09T03:06:59.203Z,47.80
2023-04-09T03:09:27.594Z,47.10
2023-04-09T03:11:57.533Z,50.00
2023-04-09T03:14:26.814Z,49.90
2023-04-09T03:16:56.226Z,50.10
2023-04-09T03:19:24.808Z,46.60
2023-04-09T03:21:53.297Z,45.90
2023-04-09T03:24:23.628Z,46.60
2023-04-09T03:26:52.627Z,46.10
2023-04-09T03:29:21.215Z,45.10
2023-04-09T03:31:49.835Z,45.10
2023-04-09T03:34:18.393Z,48.20
2023-04-09T03:36:52.609Z,46.50
2023-04-09T03:39:30.988Z,46.40
2023-04-09T03:41:59.725Z,46.00
2023-04-09T03:44:30.863Z,49.90
2023-04-09T03:47:08.160Z,51.00
2023-04-09T03:49:37.153Z,53.40
2023-04-09T03:52:27.131Z,50.00
2023-04-09T03:55:08.002Z,47.40
2023-04-09T03:57:37.400Z,50.10
2023-04-09T04:00:09.313Z,50.20
2023-04-09T04:02:52.448Z,54.90
2023-04-09T04:05:31.519Z,51.80
2023-04-09T04:08:00.730Z,54.40
2023-04-09T04:10:29.823Z,57.90
2023-04-09T04:12:58.452Z,54.90
2023-04-09T04:15:43.377Z,58.60
2023-04-09T04:18:12.778Z,59.30
2023-04-09T04:20:54.671Z,60.60
2023-04-09T04:23:32.062Z,60.30
2023-04-09T04:26:11.061Z,61.20
2023-04-09T04:28:40.537Z,58.50
2023-04-09T04:31:13.002Z,57.00
2023-04-09T04:33:43.019Z,54.00
2023-04-09T04:36:16.599Z,54.90
2023-04-09T04:38:50.197Z,54.00
2023-04-09T04:41:24.939Z,55.90
2023-04-09T04:43:58.535Z,54.30
2023-04-09T04:46:27.739Z,53.70
2023-04-09T04:48:56.442Z,52.50
2023-04-09T04:51:24.725Z,53.40
2023-04-09T04:54:06.517Z,52.20
2023-04-09T04:56:34.890Z,53.10
2023-04-09T04:59:07.993Z,52.40
2023-04-09T05:01:48.672Z,50.80
2023-04-09T05:04:17.437Z,51.60
2023-04-09T05:06:46.337Z,51.40
2023-04-09T05:09:19.493Z,50.00
2023-04-09T05:11:59.475Z,50.70
2023-04-09T05:14:30.727Z,53.60
2023-04-09T05:16:59.718Z,54.80
2023-04-09T05:19:32.814Z,49.10
2023-04-09T05:22:03.557Z,51.10
2023-04-09T05:24:32.143Z,52.40
2023-04-09T05:27:01.547Z,50.70
2023-04-09T05:29:30.041Z,55.40
2023-04-09T05:31:58.321Z,54.00
2023-04-09T05:34:31.207Z,52.90
2023-04-09T05:37:00.000Z,52.20
2023-04-09T05:39:28.693Z,53.90
2023-04-09T05:41:59.637Z,54.20
2023-04-09T05:44:28.254Z,52.10
2023-04-09T05:47:03.678Z,52.30
2023-04-09T05:49:37.786Z,52.90
2023-04-09T05:52:11.292Z,47.40
2023-04-09T05:54:39.781Z,47.80
2023-04-09T05:57:09.286Z,45.80
2023-04-09T05:59:39.520Z,45.70
2023-04-09T06:02:08.252Z,45.10
2023-04-09T06:04:36.753Z,46.20
2023-04-09T06:07:05.175Z,49.20
2023-04-09T06:09:33.766Z,45.80
2023-04-09T06:12:04.303Z,42.20
2023-04-09T06:14:33.352Z,43.50
2023-04-09T06:17:01.991Z,46.40
2023-04-09T06:19:30.579Z,44.50
2023-04-09T06:21:58.974Z,46.00
2023-04-09T06:24:27.345Z,44.60
2023-04-09T06:26:55.736Z,42.60
2023-04-09T06:29:24.443Z,43.10
2023-04-09T06:31:53.017Z,43.00
2023-04-09T06:34:21.509Z,43.20
2023-04-09T06:36:49.989Z,44.30
2023-04-09T06:39:18.472Z,43.20
2023-04-09T06:41:46.759Z,46.80
2023-04-09T06:44:38.178Z,46.10
2023-04-09T06:47:09.330Z,45.00
2023-04-09T06:49:38.412Z,46.30
2023-04-09T06:52:07.626Z,43.90
2023-04-09T06:54:36.102Z,46.40
2023-04-09T06:57:04.391Z,44.00
2023-04-09T06:59:33.997Z,41.80
2023-04-09T07:02:02.584Z,43.60
2023-04-09T07:04:31.889Z,46.10
2023-04-09T07:07:00.482Z,45.00
2023-04-09T07:09:28.863Z,44.70
2023-04-09T07:11:57.148Z,41.70
2023-04-09T07:14:25.634Z,41.80
2023-04-09T07:16:54.427Z,42.70
2023-04-09T07:19:22.720Z,40.00
2023-04-09T07:21:51.649Z,42.50
2023-04-09T07:24:19.990Z,39.70
2023-04-09T07:26:49.972Z,41.60
2023-04-09T07:29:20.952Z,42.00
2023-04-09T07:31:49.612Z,42.90
2023-04-09T07:34:18.133Z,41.90
2023-04-09T07:36:46.616Z,42.80
2023-04-09T07:39:15.207Z,42.70
2023-04-09T07:41:43.600Z,41.40
2023-04-09T07:44:12.487Z,42.50
2023-04-09T07:46:41.736Z,44.60
2023-04-09T07:49:11.178Z,40.90
2023-04-09T07:51:39.797Z,43.20
2023-04-09T07:54:09.099Z,40.60
2023-04-09T07:56:38.614Z,41.00
2023-04-09T07:59:07.093Z,39.70
2023-04-09T08:01:38.129Z,41.40
2023-04-09T08:04:07.220Z,41.90
2023-04-09T08:06:36.649Z,40.90
2023-04-09T08:09:05.442Z,39.00
2023-04-09T08:11:34.347Z,38.60
2023-04-09T08:14:03.345Z,38.70
2023-04-09T08:16:31.847Z,38.90
2023-04-09T08:19:00.523Z,41.50
2023-04-09T08:21:29.414Z,39.60
2023-04-09T08:24:01.438Z,38.90
2023-04-09T08:26:29.868Z,37.50
2023-04-09T08:28:58.356Z,38.00
2023-04-09T08:31:27.657Z,39.10
2023-04-09T08:33:56.558Z,37.40
2023-04-09T08:36:24.986Z,37.60
2023-04-09T08:38:56.271Z,36.10
2023-04-09T08:41:26.802Z,36.30
2023-04-09T08:43:59.291Z,36.10
2023-04-09T08:46:28.919Z,36.80
2023-04-09T08:48:57.511Z,35.90
2023-04-09T08:51:25.994Z,38.00
2023-04-09T08:54:00.786Z,37.20
2023-04-09T08:56:32.573Z,36.20
2023-04-09T08:59:00.869Z,37.00
2023-04-09T09:01:31.542Z,36.30
2023-04-09T09:04:03.136Z,37.30
2023-04-09T09:06:36.554Z,36.30
2023-04-09T09:09:05.144Z,37.60
2023-04-09T09:11:35.488Z,35.20
2023-04-09T09:14:12.062Z,32.30
2023-04-09T09:17:03.951Z,30.60
2023-04-09T09:19:34.059Z,30.10
2023-04-09T09:22:04.402Z,30.10
2023-04-09T09:24:34.243Z,28.80
2023-04-09T09:27:03.150Z,30.60
2023-04-09T09:29:32.029Z,28.70
2023-04-09T09:32:00.925Z,27.50
2023-04-09T09:34:29.313Z,27.20
2023-04-09T09:36:57.797Z,25.80
2023-04-09T09:39:44.301Z,25.30
2023-04-09T09:42:12.788Z,23.00
2023-04-09T09:44:41.785Z,24.90
2023-04-09T09:47:13.540Z,21.10
2023-04-09T09:49:42.032Z,19.70
2023-04-09T09:52:11.640Z,20.80
2023-04-09T09:54:47.896Z,19.20
2023-04-09T09:57:19.275Z,18.70
2023-04-09T10:00:02.271Z,19.90
2023-04-09T10:02:57.401Z,19.30
2023-04-09T10:05:28.008Z,20.00
2023-04-09T10:08:00.586Z,20.20
2023-04-09T10:10:31.340Z,18.40
2023-04-09T10:13:00.016Z,18.00
2023-04-09T10:15:30.127Z,17.90
2023-04-09T10:17:58.488Z,18.10
2023-04-09T10:20:33.242Z,18.10
2023-04-09T10:23:06.472Z,17.50
2023-04-09T10:28:03.479Z,15.20
2023-04-09T10:30:33.651Z,15.60
2023-04-09T10:33:16.835Z,16.40
2023-04-09T10:35:48.020Z,14.90
2023-04-09T10:38:16.526Z,16.20
2023-04-09T10:40:52.123Z,16.90
2023-04-09T10:43:22.348Z,15.80
2023-04-09T10:45:54.593Z,15.90
2023-04-09T10:48:26.280Z,14.10
2023-04-09T10:50:55.833Z,13.60
2023-04-09T10:53:27.794Z,13.50
2023-04-09T10:55:56.493Z,13.00
2023-04-09T10:58:24.767Z,13.00
2023-04-09T11:00:54.278Z,12.70
2023-04-09T11:03:25.438Z,11.50
2023-04-09T11:06:10.758Z,12.40
2023-04-09T11:08:39.358Z,11.60
2023-04-09T11:11:07.674Z,12.40
2023-04-09T11:13:36.676Z,11.90
2023-04-09T11:16:07.308Z,9.50
2023-04-09T11:18:37.232Z,10.30
2023-04-09T11:21:06.495Z,11.50
2023-04-09T11:23:35.751Z,10.80
2023-04-09T11:26:03.966Z,10.50
2023-04-09T11:28:32.209Z,11.60
2023-04-09T11:31:00.916Z,12.80
2023-04-09T11:33:34.353Z,12.80
2023-04-09T11:36:06.534Z,13.30
2023-04-09T11:38:38.521Z,12.90
2023-04-09T11:41:06.903Z,13.80
2023-04-09T11:43:36.828Z,13.70
2023-04-09T11:46:08.278Z,13.40
2023-04-09T11:48:37.080Z,13.80
2023-04-09T11:51:06.696Z,13.30
2023-04-09T11:53:37.632Z,12.20
2023-04-09T11:56:06.013Z,12.30
2023-04-09T11:58:34.231Z,12.40
2023-04-09T12:01:02.483Z,12.10
2023-04-09T12:03:36.844Z,12.40
2023-04-09T12:06:07.121Z,11.20
2023-04-09T12:08:36.478Z,10.90
2023-04-09T12:11:12.995Z,12.60
2023-04-09T12:13:44.782Z,11.20
2023-04-09T12:16:14.447Z,11.20
2023-04-09T12:18:43.168Z,11.60
2023-04-09T12:21:11.656Z,10.90
2023-04-09T12:23:39.873Z,10.80
2023-04-09T12:26:08.332Z,10.30
2023-04-09T12:28:37.222Z,9.60
2023-04-09T12:31:06.218Z,10.30
2023-04-09T12:33:34.603Z,9.40
2023-04-09T12:36:02.925Z,9.40
2023-04-09T12:38:31.489Z,9.60
2023-04-09T12:40:59.857Z,9.70
2023-04-09T12:43:28.358Z,9.70
2023-04-09T12:45:58.047Z,9.40
2023-04-09T12:48:26.959Z,9.70
2023-04-09T12:50:55.546Z,9.30
2023-04-09T12:53:23.926Z,8.80
2023-04-09T12:55:52.444Z,10.00
2023-04-09T12:58:21.001Z,9.40
2023-04-09T13:00:50.021Z,9.00
2023-04-09T13:03:18.335Z,9.60
2023-04-09T13:05:47.483Z,8.40
2023-04-09T13:08:16.487Z,7.80
2023-04-09T13:10:44.869Z,8.70
2023-04-09T13:13:13.566Z,8.40
2023-04-09T13:15:46.486Z,8.90
2023-04-09T13:18:14.938Z,8.60
2023-04-09T13:20:43.129Z,7.90
2023-04-09T13:23:11.405Z,7.60
2023-04-09T13:25:39.821Z,7.20
2023-04-09T13:28:08.066Z,8.20
2023-04-09T13:30:36.690Z,8.20
2023-04-09T13:33:05.127Z,7.50
2023-04-09T13:35:33.865Z,8.00
2023-04-09T13:38:02.323Z,8.30
2023-04-09T13:40:30.783Z,7.50
2023-04-09T13:42:58.988Z,8.50
2023-04-09T13:45:28.092Z,7.70
2023-04-09T13:47:56.931Z,9.10
2023-04-09T13:50:25.574Z,8.60
2023-04-09T13:52:54.269Z,8.10
2023-04-09T13:55:22.755Z,8.20
2023-04-09T13:57:51.345Z,8.10
2023-04-09T14:00:20.110Z,8.70
2023-04-09T14:02:48.448Z,8.30
2023-04-09T14:05:17.158Z,8.80
2023-04-09T14:07:45.288Z,8.20
2023-04-09T14:10:13.779Z,8.00
2023-04-09T14:12:42.588Z,8.40
2023-04-09T14:15:11.357Z,7.90
2023-04-09T14:17:40.022Z,7.90
2023-04-09T14:20:08.963Z,8.30
2023-04-09T14:22:37.231Z,8.40
2023-04-09T14:25:06.817Z,8.50
2023-04-09T14:27:35.028Z,8.50
2023-04-09T14:30:04.420Z,7.70
2023-04-09T14:32:32.762Z,8.10
2023-04-09T14:35:01.118Z,7.80
2023-04-09T14:37:29.583Z,8.00
2023-04-09T14:39:57.975Z,8.20
2023-04-09T14:42:26.460Z,8.00
2023-04-09T14:44:54.944Z,8.40
2023-04-09T14:47:23.744Z,8.70
2023-04-09T14:49:52.022Z,7.90
2023-04-09T14:52:21.020Z,9.00
2023-04-09T14:54:49.403Z,8.70
2023-04-09T14:57:17.895Z,8.80
2023-04-09T14:59:46.380Z,9.20
2023-04-09T15:02:14.992Z,8.10
2023-04-09T15:04:43.525Z,8.30
2023-04-09T15:07:11.945Z,8.10
2023-04-09T15:09:40.123Z,7.70
2023-04-09T15:12:09.835Z,7.10
2023-04-09T15:14:38.224Z,7.50
2023-04-09T15:17:06.607Z,7.80
2023-04-09T15:19:35.608Z,7.60
2023-04-09T15:22:04.193Z,7.60
2023-04-09T15:24:32.682Z,8.30
2023-04-09T15:27:01.737Z,8.40
2023-04-09T15:29:29.962Z,7.60
2023-04-09T15:31:58.391Z,8.30
2023-04-09T15:34:26.746Z,8.00
2023-04-09T15:36:55.233Z,8.50
2023-04-09T15:39:24.823Z,8.80
2023-04-09T15:41:53.214Z,8.60
2023-04-09T15:44:21.694Z,8.40
2023-04-09T15:46:51.130Z,8.80
2023-04-09T15:49:20.194Z,9.50
2023-04-09T15:51:48.804Z,8.70
2023-04-09T15:54:17.384Z,8.70
2023-04-09T15:56:45.970Z,9.60
2023-04-09T15:59:14.270Z,9.50
2023-04-09T16:01:42.580Z,9.50
2023-04-09T16:04:11.355Z,10.10
2023-04-09T16:06:39.720Z,9.30
2023-04-09T16:09:08.121Z,9.80
2023-04-09T16:11:37.619Z,10.70
2023-04-09T16:14:06.010Z,10.50
2023-04-09T16:16:34.737Z,10.40
2023-04-09T16:19:03.183Z,10.80
2023-04-09T16:21:32.305Z,12.10
2023-04-09T16:24:01.081Z,13.00
2023-04-09T16:26:29.667Z,12.40
2023-04-09T16:29:03.158Z,11.20
2023-04-09T16:31:31.558Z,12.10
2023-04-09T16:33:59.930Z,10.80
2023-04-09T16:36:28.621Z,11.90
2023-04-09T16:38:57.880Z,11.80
2023-04-09T16:41:26.529Z,11.80
2023-04-09T16:43:55.375Z,12.20
2023-04-09T16:46:24.334Z,11.60
2023-04-09T16:48:53.111Z,11.90
2023-04-09T16:51:21.992Z,11.40
2023-04-09T16:53:50.418Z,12.00
2023-04-09T16:56:18.869Z,12.30
2023-04-09T16:58:47.364Z,13.10
2023-04-09T17:01:15.958Z,14.30
2023-04-09T17:03:44.571Z,14.00
2023-04-09T17:06:13.425Z,15.00
2023-04-09T17:08:42.329Z,13.10
2023-04-09T17:11:15.562Z,13.70
2023-04-09T17:13:45.025Z,13.30
2023-04-09T17:16:14.430Z,14.60
2023-04-09T17:18:42.936Z,13.70
2023-04-09T17:21:12.650Z,14.60
2023-04-09T17:23:41.230Z,14.50
2023-04-09T17:26:09.735Z,14.30
2023-04-09T17:28:38.000Z,15.00
2023-04-09T17:31:13.312Z,14.40
2023-04-09T17:33:44.690Z,13.60
2023-04-09T17:36:13.017Z,15.00
2023-04-09T17:38:41.363Z,13.60
2023-04-09T17:41:09.743Z,14.50
2023-04-09T17:43:38.228Z,14.50
2023-04-09T17:46:10.291Z,14.90
2023-04-09T17:48:39.714Z,14.30
2023-04-09T17:51:08.748Z,14.40
2023-04-09T17:53:37.091Z,15.10
2023-04-09T17:56:06.172Z,15.60
2023-04-09T17:58:34.690Z,14.80
2023-04-09T18:01:07.598Z,15.70
2023-04-09T18:03:36.413Z,15.90
2023-04-09T18:06:05.134Z,15.20
2023-04-09T18:08:35.893Z,15.30
2023-04-09T18:11:12.700Z,14.90
2023-04-09T18:13:42.277Z,15.30
2023-04-09T18:16:12.418Z,16.10
2023-04-09T18:18:41.503Z,16.30
2023-04-09T18:21:09.989Z,16.60
2023-04-09T18:23:40.545Z,16.80
2023-04-09T18:26:09.136Z,18.10
2023-04-09T18:28:37.756Z,20.50
2023-04-09T18:31:06.572Z,17.40
2023-04-09T18:33:37.234Z,18.90
2023-04-09T18:36:06.403Z,19.20
2023-04-09T18:38:35.592Z,20.20
2023-04-09T18:41:04.136Z,19.00
2023-04-09T18:43:32.508Z,19.00
2023-04-09T18:46:01.561Z,19.20
2023-04-09T18:48:30.006Z,19.80
2023-04-09T18:50:59.301Z,19.20
2023-04-09T18:53:27.896Z,20.20
2023-04-09T18:55:56.689Z,20.50
2023-04-09T18:58:29.068Z,21.60
2023-04-09T19:00:57.563Z,21.00
2023-04-09T19:03:27.897Z,21.90
2023-04-09T19:06:00.403Z,23.50
2023-04-09T19:08:32.534Z,21.60
2023-04-09T19:11:00.925Z,22.80
2023-04-09T19:13:29.401Z,23.70
2023-04-09T19:15:58.574Z,24.70
2023-04-09T19:18:27.398Z,23.60
2023-04-09T19:20:56.295Z,23.40
2023-04-09T19:23:24.989Z,25.20
2023-04-09T19:25:56.235Z,24.30
2023-04-09T19:28:25.132Z,24.80
2023-04-09T19:30:53.930Z,25.70
2023-04-09T19:33:23.436Z,22.70
2023-04-09T19:35:54.200Z,22.10
2023-04-09T19:38:22.672Z,24.30
2023-04-09T19:40:51.431Z,25.30
2023-04-09T19:43:19.738Z,24.20
2023-04-09T19:45:48.525Z,24.50
2023-04-09T19:48:19.982Z,25.30
2023-04-09T19:50:49.232Z,22.00
2023-04-09T19:53:18.692Z,22.50
2023-04-09T19:55:46.999Z,25.50
2023-04-09T19:58:15.776Z,25.10
2023-04-09T20:00:44.371Z,25.30
2023-04-09T20:03:13.343Z,25.30
2023-04-09T20:05:41.847Z,25.30
2023-04-09T20:08:14.343Z,26.30
2023-04-09T20:10:46.592Z,24.20
2023-04-09T20:13:15.078Z,25.80
2023-04-09T20:15:44.385Z,28.30
2023-04-09T20:18:12.992Z,26.40
2023-04-09T20:20:41.775Z,27.10
2023-04-09T20:23:10.158Z,27.20
2023-04-09T20:25:38.638Z,27.00
2023-04-09T20:28:09.992Z,28.20
2023-04-09T20:30:38.378Z,28.10
2023-04-09T20:33:06.929Z,28.90
2023-04-09T20:35:36.547Z,27.90
2023-04-09T20:38:06.298Z,27.40
2023-04-09T20:40:37.749Z,28.80
2023-04-09T20:43:06.753Z,27.30
2023-04-09T20:45:35.687Z,27.30
2023-04-09T20:48:04.142Z,27.10
2023-04-09T20:50:32.625Z,26.30
2023-04-09T20:53:01.223Z,26.70
2023-04-09T20:55:29.999Z,27.70
2023-04-09T20:57:58.689Z,26.30
2023-04-09T21:00:27.694Z,25.40
2023-04-09T21:02:56.385Z,27.10
2023-04-09T21:05:24.861Z,27.50
2023-04-09T21:07:53.345Z,27.70
2023-04-09T21:10:21.871Z,29.00
2023-04-09T21:12:51.001Z,28.90
2023-04-09T21:15:19.734Z,31.60
2023-04-09T21:17:48.433Z,28.80
2023-04-09T21:20:17.836Z,32.00
2023-04-09T21:22:46.437Z,32.00
2023-04-09T21:25:15.643Z,31.10
2023-04-09T21:27:44.227Z,30.20
2023-04-09T21:30:12.812Z,31.90
2023-04-09T21:32:41.238Z,33.10
2023-04-09T21:35:09.605Z,34.70
2023-04-09T21:37:38.583Z,34.30
2023-04-09T21:40:08.007Z,34.40
2023-04-09T21:42:36.378Z,34.20
2023-04-09T21:45:05.623Z,33.60
2023-04-09T21:47:34.391Z,33.50
2023-04-09T21:50:04.257Z,31.10
2023-04-09T21:52:33.089Z,33.70
2023-04-09T21:55:01.678Z,32.00
2023-04-09T21:57:29.958Z,34.80
2023-04-09T21:59:59.058Z,35.50
2023-04-09T22:02:28.348Z,32.90
2023-04-09T22:04:59.394Z,34.50
2023-04-09T22:07:27.998Z,32.40
2023-04-09T22:09:57.718Z,34.80
2023-04-09T22:12:26.813Z,35.80
2023-04-09T22:14:55.715Z,35.70
2023-04-09T22:17:24.021Z,36.20
2023-04-09T22:19:52.992Z,33.20
2023-04-09T22:22:21.887Z,33.80
2023-04-09T22:24:50.168Z,33.20
2023-04-09T22:27:18.483Z,34.80
2023-04-09T22:29:47.036Z,35.90
2023-04-09T22:32:15.426Z,33.60
2023-04-09T22:34:44.014Z,30.70
2023-04-09T22:37:12.620Z,32.20
2023-04-09T22:39:41.396Z,32.00
2023-04-09T22:42:10.807Z,30.60
2023-04-09T22:44:40.170Z,30.30
2023-04-09T22:47:08.698Z,31.00
2023-04-09T22:49:37.082Z,31.20
2023-04-09T22:52:06.092Z,32.30
2023-04-09T22:54:34.573Z,31.10
2023-04-09T22:57:03.159Z,31.10
2023-04-09T22:59:39.952Z,31.40
2023-04-09T23:02:09.442Z,30.40
2023-04-09T23:04:39.086Z,29.40
2023-04-09T23:07:10.914Z,32.10
2023-04-09T23:09:39.101Z,30.00
2023-04-09T23:12:07.887Z,31.20
2023-04-09T23:14:36.582Z,30.90
2023-04-09T23:17:04.963Z,31.20
2023-04-09T23:19:33.861Z,32.40
2023-04-09T23:22:02.551Z,31.10
2023-04-09T23:24:31.037Z,33.00
2023-04-09T23:26:59.867Z,31.60
2023-04-09T23:29:28.211Z,33.40
2023-04-09T23:31:56.741Z,33.30
2023-04-09T23:34:25.593Z,32.70
2023-04-09T23:36:53.988Z,33.20
2023-04-09T23:39:22.572Z,33.30
2023-04-09T23:41:51.377Z,32.70
2023-04-09T23:44:19.964Z,34.20
2023-04-09T23:46:48.598Z,35.20
2023-04-09T23:49:17.135Z,33.20
2023-04-09T23:51:45.619Z,33.70
2023-04-09T23:54:13.886Z,33.60
2023-04-09T23:56:42.490Z,34.40
2023-04-09T23:59:11.354Z,36.70
